Time;durP1;ratioP1;P1;durP2;ratioP2;P2;SDS_P1;SDS_P2;PMS_P1;PMS_P2;Temp;Humidity;BMP_temperature;BMP_pressure;BME280_temperature;BME280_humidity;BME280_pressure;Samples;Min_cycle;Max_cycle;Signal;HPM_P1;HPM_P2
2024/01/28 00:00:57;;;;;;;22.33;11.93;;;;;;;;;;5018943;28;20514;-77
2024/01/28 00:03:23;;;;;;;27.95;12.55;;;;;;;;;;5011439;28;20045;-76
2024/01/28 00:05:51;;;;;;;17.55;11.70;;;;;;;;;;4988220;28;20064;-77
2024/01/28 00:08:17;;;;;;;23.73;11.82;;;;;;;;;;4989154;28;20132;-77
2024/01/28 00:10:43;;;;;;;22.80;12.95;;;;;;;;;;4987420;28;20049;-76
2024/01/28 00:13:09;;;;;;;24.27;12.38;;;;;;;;;;4988572;28;20388;-76
2024/01/28 00:15:35;;;;;;;23.55;11.43;;;;;;;;;;4989955;28;20042;-76
2024/01/28 00:18:02;;;;;;;26.80;12.25;;;;;;;;;;4991829;28;20057;-76
2024/01/28 00:20:27;;;;;;;30.20;12.15;;;;;;;;;;4989243;28;20046;-76
2024/01/28 00:22:54;;;;;;;21.35;11.25;;;;;;;;;;4988638;28;20400;-77
2024/01/28 00:25:20;;;;;;;21.50;11.18;;;;;;;;;;4988324;28;20634;-76
2024/01/28 00:27:46;;;;;;;24.58;12.30;;;;;;;;;;4988654;28;20409;-76
2024/01/28 00:30:13;;;;;;;24.85;12.05;;;;;;;;;;4992787;28;20046;-77
2024/01/28 00:32:41;;;;;;;21.00;12.38;;;;;;;;;;4992414;28;20477;-76
2024/01/28 00:35:08;;;;;;;26.45;12.32;;;;;;;;;;4991827;28;20069;-77
2024/01/28 00:37:34;;;;;;;25.00;10.98;;;;;;;;;;4986912;28;20214;-77
2024/01/28 00:40:00;;;;;;;19.30;11.45;;;;;;;;;;4989044;28;20404;-76
2024/01/28 00:42:26;;;;;;;19.40;10.48;;;;;;;;;;4988169;28;20407;-76
2024/01/28 00:44:52;;;;;;;27.58;11.23;;;;;;;;;;4988574;28;20061;-77
2024/01/28 00:47:18;;;;;;;19.08;10.18;;;;;;;;;;4988585;28;20173;-77
2024/01/28 00:49:44;;;;;;;21.63;11.27;;;;;;;;;;4983014;28;20456;-77
2024/01/28 00:52:10;;;;;;;26.48;11.95;;;;;;;;;;4978032;28;20508;-77
2024/01/28 00:54:37;;;;;;;26.00;10.98;;;;;;;;;;4952514;28;20043;-76
2024/01/28 00:57:03;;;;;;;20.38;10.68;;;;;;;;;;4979495;28;20054;-76
2024/01/28 00:59:29;;;;;;;20.80;10.98;;;;;;;;;;4975913;28;20610;-77
2024/01/28 01:01:55;;;;;;;20.67;11.18;;;;;;;;;;4986023;28;20049;-77
2024/01/28 01:04:21;;;;;;;24.42;10.77;;;;;;;;;;4987363;28;20416;-76
2024/01/28 01:06:47;;;;;;;18.15;11.40;;;;;;;;;;4971684;28;20061;-77
2024/01/28 01:09:13;;;;;;;23.33;11.68;;;;;;;;;;4976884;28;20059;-77
2024/01/28 01:11:39;;;;;;;20.75;11.10;;;;;;;;;;4975745;28;20096;-77
2024/01/28 01:14:05;;;;;;;24.80;10.65;;;;;;;;;;4986712;28;20053;-77
2024/01/28 01:16:31;;;;;;;21.23;10.23;;;;;;;;;;4988106;28;20109;-77
2024/01/28 01:18:57;;;;;;;22.23;10.30;;;;;;;;;;4987047;28;20096;-76
2024/01/28 01:21:23;;;;;;;25.67;10.57;;;;;;;;;;4987845;28;20380;-76
2024/01/28 01:23:49;;;;;;;22.30;10.48;;;;;;;;;;4988969;28;20065;-77
2024/01/28 01:26:15;;;;;;;22.77;11.15;;;;;;;;;;4981974;28;20510;-76
2024/01/28 01:28:41;;;;;;;20.30;11.18;;;;;;;;;;4978304;28;20042;-76
2024/01/28 01:31:07;;;;;;;20.00;10.50;;;;;;;;;;4999132;28;20056;-77
2024/01/28 01:33:33;;;;;;;29.70;11.93;;;;;;;;;;4988415;28;20042;-76
2024/01/28 01:35:59;;;;;;;23.17;10.82;;;;;;;;;;4987117;28;20054;-77
2024/01/28 01:38:25;;;;;;;17.35;9.88;;;;;;;;;;4985325;28;20050;-77
2024/01/28 01:40:51;;;;;;;20.70;9.90;;;;;;;;;;4988270;28;20042;-77
2024/01/28 01:43:17;;;;;;;17.13;9.82;;;;;;;;;;4987104;28;20500;-77
2024/01/28 01:45:43;;;;;;;18.40;10.38;;;;;;;;;;4985882;28;20149;-77
2024/01/28 01:48:12;;;;;;;24.45;10.27;;;;;;;;;;4988066;28;20077;-77
2024/01/28 01:50:40;;;;;;;21.50;10.20;;;;;;;;;;4986030;28;20050;-77
2024/01/28 01:53:06;;;;;;;23.42;10.48;;;;;;;;;;4986318;28;20047;-77
2024/01/28 01:55:35;;;;;;;23.50;10.43;;;;;;;;;;4985611;28;20042;-77
2024/01/28 01:58:01;;;;;;;18.63;10.55;;;;;;;;;;4988092;28;20046;-77
2024/01/28 02:00:27;;;;;;;19.45;9.77;;;;;;;;;;4993157;28;20042;-76
2024/01/28 02:02:53;;;;;;;22.85;10.80;;;;;;;;;;4980674;28;20066;-77
2024/01/28 02:05:19;;;;;;;20.13;10.70;;;;;;;;;;4985681;28;20050;-76
2024/01/28 02:07:46;;;;;;;22.67;10.77;;;;;;;;;;4986199;28;20046;-77
2024/01/28 02:10:12;;;;;;;19.88;10.82;;;;;;;;;;4985327;28;20208;-77
2024/01/28 02:12:38;;;;;;;22.65;11.20;;;;;;;;;;4977531;28;20157;-77
2024/01/28 02:15:09;;;;;;;21.02;11.10;;;;;;;;;;5002485;28;20043;-77
2024/01/28 02:17:35;;;;;;;20.75;11.18;;;;;;;;;;4992980;28;20061;-77
2024/01/28 02:20:01;;;;;;;20.55;10.38;;;;;;;;;;4991153;28;20046;-77
2024/01/28 02:22:27;;;;;;;26.50;11.13;;;;;;;;;;4990216;28;20043;-77
2024/01/28 02:24:53;;;;;;;20.95;11.25;;;;;;;;;;4992960;28;20061;-77
2024/01/28 02:27:20;;;;;;;19.38;11.27;;;;;;;;;;4992295;28;20497;-77
2024/01/28 02:29:45;;;;;;;21.40;10.77;;;;;;;;;;4974771;28;20057;-76
2024/01/28 02:32:12;;;;;;;19.27;11.23;;;;;;;;;;4991380;28;20038;-77
2024/01/28 02:34:38;;;;;;;22.00;10.93;;;;;;;;;;4990930;28;20066;-77
2024/01/28 02:37:04;;;;;;;23.15;11.75;;;;;;;;;;4992298;28;20046;-77
2024/01/28 02:39:30;;;;;;;22.35;11.00;;;;;;;;;;4992479;28;20058;-77
2024/01/28 02:41:56;;;;;;;25.65;11.48;;;;;;;;;;4990438;28;20050;-77
2024/01/28 02:44:22;;;;;;;17.67;11.35;;;;;;;;;;4989060;28;20141;-77
2024/01/28 02:46:48;;;;;;;22.10;12.02;;;;;;;;;;4991258;28;20046;-77
2024/01/28 02:49:14;;;;;;;20.80;11.13;;;;;;;;;;4989643;28;20483;-76
2024/01/28 02:51:44;;;;;;;16.75;11.23;;;;;;;;;;4992119;28;20050;-77
2024/01/28 02:54:10;;;;;;;23.60;11.13;;;;;;;;;;4989901;28;20082;-77
2024/01/28 02:56:36;;;;;;;15.20;10.55;;;;;;;;;;4992895;28;20050;-77
2024/01/28 02:59:03;;;;;;;19.13;10.52;;;;;;;;;;4991330;28;20057;-77
2024/01/28 03:01:29;;;;;;;22.98;11.35;;;;;;;;;;4990377;28;20054;-76
2024/01/28 03:03:55;;;;;;;20.88;11.52;;;;;;;;;;4998190;28;20057;-77
2024/01/28 03:06:21;;;;;;;19.80;10.65;;;;;;;;;;5031579;28;20140;-77
2024/01/28 03:08:47;;;;;;;19.45;10.88;;;;;;;;;;5013012;28;20119;-76
2024/01/28 03:11:13;;;;;;;19.73;10.52;;;;;;;;;;5046760;28;20052;-77
2024/01/28 03:13:39;;;;;;;20.65;10.82;;;;;;;;;;5030151;28;20136;-77
2024/01/28 03:16:05;;;;;;;16.67;10.55;;;;;;;;;;5031456;28;20157;-76
2024/01/28 03:18:32;;;;;;;19.05;10.55;;;;;;;;;;5011569;28;20432;-76
2024/01/28 03:20:57;;;;;;;19.60;10.00;;;;;;;;;;5013431;28;20411;-77
2024/01/28 03:23:23;;;;;;;19.15;10.88;;;;;;;;;;5030335;28;20045;-76
2024/01/28 03:25:49;;;;;;;20.05;11.25;;;;;;;;;;5028638;28;20136;-77
2024/01/28 03:28:15;;;;;;;16.45;10.93;;;;;;;;;;5030472;28;20079;-77
2024/01/28 03:30:41;;;;;;;16.38;10.60;;;;;;;;;;5030586;28;20679;-77
2024/01/28 03:33:07;;;;;;;21.73;10.90;;;;;;;;;;5029126;28;20049;-77
2024/01/28 03:35:33;;;;;;;16.02;9.93;;;;;;;;;;5027510;28;20169;-77
2024/01/28 03:38:00;;;;;;;18.80;9.98;;;;;;;;;;5011901;28;20560;-77
2024/01/28 03:40:26;;;;;;;18.20;11.00;;;;;;;;;;5035786;28;20053;-77
2024/01/28 03:42:52;;;;;;;18.98;10.52;;;;;;;;;;5029164;28;20064;-76
2024/01/28 03:45:18;;;;;;;23.35;10.65;;;;;;;;;;5030641;28;20050;-77
2024/01/28 03:47:44;;;;;;;15.05;11.05;;;;;;;;;;5029576;28;20049;-77
2024/01/28 03:50:11;;;;;;;24.10;11.00;;;;;;;;;;5029175;28;20128;-77
2024/01/28 03:52:37;;;;;;;20.88;9.95;;;;;;;;;;5029875;28;20136;-77
2024/01/28 03:55:03;;;;;;;20.38;10.98;;;;;;;;;;5030422;28;20071;-77
2024/01/28 03:57:29;;;;;;;20.90;11.73;;;;;;;;;;5028210;28;20125;-77
2024/01/28 03:59:55;;;;;;;18.45;10.32;;;;;;;;;;5030422;28;20056;-76
2024/01/28 04:02:21;;;;;;;19.75;10.48;;;;;;;;;;5029376;28;20045;-76
2024/01/28 04:04:47;;;;;;;17.00;10.88;;;;;;;;;;5029235;28;20057;-77
2024/01/28 04:07:13;;;;;;;16.50;10.68;;;;;;;;;;5029636;28;20046;-77
2024/01/28 04:09:39;;;;;;;19.88;11.40;;;;;;;;;;5018684;28;20045;-77
2024/01/28 04:12:05;;;;;;;22.33;10.75;;;;;;;;;;5032389;28;20052;-76
2024/01/28 04:14:31;;;;;;;21.52;11.27;;;;;;;;;;5010649;28;20049;-77
2024/01/28 04:16:57;;;;;;;19.52;11.18;;;;;;;;;;5012142;28;20046;-77
2024/01/28 04:19:23;;;;;;;22.98;11.00;;;;;;;;;;5011042;28;20093;-76
2024/01/28 04:21:49;;;;;;;16.52;11.45;;;;;;;;;;5008928;28;20081;-77
2024/01/28 04:24:15;;;;;;;20.48;10.85;;;;;;;;;;5032937;28;20049;-77
2024/01/28 04:26:41;;;;;;;16.55;10.15;;;;;;;;;;5027429;28;20052;-76
2024/01/28 04:29:07;;;;;;;19.58;9.82;;;;;;;;;;5029004;28;20053;-76
2024/01/28 04:31:33;;;;;;;18.13;10.20;;;;;;;;;;5011214;28;20053;-76
2024/01/28 04:33:59;;;;;;;19.08;10.45;;;;;;;;;;5019220;28;20049;-76
2024/01/28 04:36:26;;;;;;;18.00;10.20;;;;;;;;;;5030263;28;20053;-77
2024/01/28 04:38:52;;;;;;;19.15;10.18;;;;;;;;;;5028852;28;20499;-77
2024/01/28 04:41:18;;;;;;;18.85;9.82;;;;;;;;;;5028193;28;20034;-76
2024/01/28 04:43:44;;;;;;;17.63;9.82;;;;;;;;;;5027779;28;20120;-77
2024/01/28 04:46:14;;;;;;;14.93;9.75;;;;;;;;;;5033195;28;20129;-76
2024/01/28 04:48:40;;;;;;;17.35;10.80;;;;;;;;;;5027565;28;20499;-76
2024/01/28 04:51:06;;;;;;;16.20;10.45;;;;;;;;;;5009169;28;20060;-76
2024/01/28 04:53:32;;;;;;;19.95;9.57;;;;;;;;;;5024327;28;20046;-76
2024/01/28 04:55:58;;;;;;;21.55;10.82;;;;;;;;;;5016207;28;20041;-77
2024/01/28 04:58:24;;;;;;;20.52;10.73;;;;;;;;;;5010031;28;20103;-77
2024/01/28 05:00:50;;;;;;;20.20;10.43;;;;;;;;;;5010472;28;20048;-76
2024/01/28 05:03:16;;;;;;;19.35;10.38;;;;;;;;;;5010424;28;20451;-76
2024/01/28 05:05:43;;;;;;;19.23;10.77;;;;;;;;;;5010873;28;20061;-76
2024/01/28 05:08:09;;;;;;;18.85;10.63;;;;;;;;;;5028017;28;20041;-77
2024/01/28 05:10:35;;;;;;;20.63;10.35;;;;;;;;;;5008670;28;20124;-76
2024/01/28 05:13:01;;;;;;;22.05;10.85;;;;;;;;;;5010171;28;20056;-76
2024/01/28 05:15:27;;;;;;;22.52;11.07;;;;;;;;;;5010442;28;20047;-77
2024/01/28 05:17:53;;;;;;;22.15;11.23;;;;;;;;;;5011084;28;20107;-76
2024/01/28 05:20:19;;;;;;;22.38;10.75;;;;;;;;;;5026418;28;20829;-76
2024/01/28 05:22:45;;;;;;;19.42;10.55;;;;;;;;;;5026182;28;20049;-76
2024/01/28 05:25:11;;;;;;;20.98;10.73;;;;;;;;;;5027406;28;20133;-76
2024/01/28 05:27:37;;;;;;;21.10;11.27;;;;;;;;;;5010640;28;20120;-76
2024/01/28 05:30:04;;;;;;;18.55;10.02;;;;;;;;;;5027143;28;20053;-76
2024/01/28 05:32:30;;;;;;;18.08;11.70;;;;;;;;;;5008178;28;20053;-76
2024/01/28 05:34:56;;;;;;;20.80;10.20;;;;;;;;;;5022855;28;20492;-76
2024/01/28 05:37:23;;;;;;;18.05;11.23;;;;;;;;;;5010309;28;20049;-76
2024/01/28 05:39:49;;;;;;;20.13;10.90;;;;;;;;;;5009045;28;20080;-77
2024/01/28 05:42:15;;;;;;;20.85;11.48;;;;;;;;;;5027066;28;20778;-76
2024/01/28 05:44:41;;;;;;;23.40;12.70;;;;;;;;;;5026465;28;20055;-77
2024/01/28 05:47:07;;;;;;;21.85;11.43;;;;;;;;;;5025435;28;20038;-76
2024/01/28 05:49:33;;;;;;;19.52;10.85;;;;;;;;;;5008650;28;20049;-77
2024/01/28 05:51:59;;;;;;;18.30;10.38;;;;;;;;;;5027886;28;20042;-77
2024/01/28 05:54:25;;;;;;;19.90;10.52;;;;;;;;;;5026518;28;20041;-77
2024/01/28 05:56:51;;;;;;;21.60;11.50;;;;;;;;;;5008487;28;20055;-76
2024/01/28 05:59:17;;;;;;;18.58;9.70;;;;;;;;;;5026547;28;20045;-77
2024/01/28 06:01:43;;;;;;;17.58;10.63;;;;;;;;;;5026630;28;20041;-77
2024/01/28 06:04:10;;;;;;;16.90;11.40;;;;;;;;;;5027270;28;20103;-76
2024/01/28 06:06:36;;;;;;;19.85;10.18;;;;;;;;;;5009830;28;20057;-77
2024/01/28 06:09:04;;;;;;;15.32;9.93;;;;;;;;;;5009090;28;20535;-76
2024/01/28 06:11:30;;;;;;;17.70;10.05;;;;;;;;;;5026892;28;20497;-76
2024/01/28 06:13:56;;;;;;;15.10;9.68;;;;;;;;;;5026207;28;20434;-76
2024/01/28 06:16:22;;;;;;;16.90;9.55;;;;;;;;;;5026642;28;20100;-76
2024/01/28 06:18:48;;;;;;;15.15;9.05;;;;;;;;;;5027408;28;20061;-76
2024/01/28 06:21:14;;;;;;;19.05;10.13;;;;;;;;;;5027004;28;20038;-76
2024/01/28 06:23:44;;;;;;;15.40;9.52;;;;;;;;;;4992752;28;20068;-76
2024/01/28 06:26:10;;;;;;;17.08;9.60;;;;;;;;;;4993293;28;20049;-76
2024/01/28 06:28:36;;;;;;;18.23;9.35;;;;;;;;;;4991144;28;20046;-76
2024/01/28 06:31:02;;;;;;;18.35;10.90;;;;;;;;;;5027626;28;20069;-77
2024/01/28 06:33:28;;;;;;;19.33;10.05;;;;;;;;;;5015226;28;20073;-79
2024/01/28 06:35:54;;;;;;;17.83;9.65;;;;;;;;;;5021547;28;20053;-77
2024/01/28 06:38:20;;;;;;;17.08;10.15;;;;;;;;;;5027240;28;20574;-77
2024/01/28 06:40:46;;;;;;;15.68;9.60;;;;;;;;;;5016450;28;20042;-77
2024/01/28 06:43:12;;;;;;;17.52;10.65;;;;;;;;;;5020874;28;20103;-76
2024/01/28 06:45:38;;;;;;;18.17;10.27;;;;;;;;;;5023617;28;20557;-77
2024/01/28 06:48:04;;;;;;;16.13;9.70;;;;;;;;;;5026607;28;20042;-77
2024/01/28 06:50:31;;;;;;;18.33;10.30;;;;;;;;;;5029195;28;20132;-76
2024/01/28 06:53:01;;;;;;;20.38;9.63;;;;;;;;;;5009892;28;20490;-76
2024/01/28 06:55:27;;;;;;;19.98;10.25;;;;;;;;;;5026142;28;20181;-77
2024/01/28 06:57:53;;;;;;;21.80;10.10;;;;;;;;;;4993516;28;20072;-76
2024/01/28 07:00:19;;;;;;;15.00;10.30;;;;;;;;;;5012475;28;20058;-76
2024/01/28 07:02:46;;;;;;;16.75;10.77;;;;;;;;;;5029971;28;20050;-75
2024/01/28 07:05:12;;;;;;;17.25;9.75;;;;;;;;;;5031262;28;20049;-76
2024/01/28 07:07:39;;;;;;;20.98;10.73;;;;;;;;;;5013193;28;20135;-75
2024/01/28 07:10:05;;;;;;;17.95;10.43;;;;;;;;;;5028080;28;20132;-76
2024/01/28 07:12:31;;;;;;;16.23;10.05;;;;;;;;;;5026630;28;20454;-76
2024/01/28 07:14:58;;;;;;;17.67;10.68;;;;;;;;;;5025590;28;20042;-75
2024/01/28 07:17:24;;;;;;;18.58;10.55;;;;;;;;;;5027356;28;20049;-76
2024/01/28 07:19:49;;;;;;;14.68;9.75;;;;;;;;;;5029704;28;20471;-75
2024/01/28 07:22:15;;;;;;;19.30;10.55;;;;;;;;;;5030607;28;20041;-75
2024/01/28 07:24:42;;;;;;;21.10;10.70;;;;;;;;;;5036095;28;20048;-75
2024/01/28 07:27:08;;;;;;;17.33;11.10;;;;;;;;;;5041057;28;20076;-75
2024/01/28 07:29:34;;;;;;;18.48;10.10;;;;;;;;;;5029278;28;20045;-75
2024/01/28 07:32:00;;;;;;;18.70;11.02;;;;;;;;;;5028121;28;20052;-76
2024/01/28 07:34:26;;;;;;;17.83;10.70;;;;;;;;;;5030757;28;20060;-76
2024/01/28 07:36:54;;;;;;;16.85;10.57;;;;;;;;;;5030371;28;20164;-77
2024/01/28 07:39:20;;;;;;;20.77;10.43;;;;;;;;;;5012648;28;20045;-77
2024/01/28 07:41:46;;;;;;;18.40;10.35;;;;;;;;;;5029811;28;20041;-77
2024/01/28 07:44:12;;;;;;;22.27;11.30;;;;;;;;;;5029921;28;20070;-77
2024/01/28 07:46:38;;;;;;;18.50;10.90;;;;;;;;;;5029569;28;20041;-77
2024/01/28 07:49:04;;;;;;;17.80;10.27;;;;;;;;;;5030302;28;20490;-77
2024/01/28 07:51:30;;;;;;;14.95;10.15;;;;;;;;;;5049297;28;20056;-77
2024/01/28 07:53:56;;;;;;;19.38;10.85;;;;;;;;;;5049636;28;20061;-77
2024/01/28 07:56:22;;;;;;;17.52;10.27;;;;;;;;;;5049296;28;20056;-77
2024/01/28 07:58:49;;;;;;;18.75;10.63;;;;;;;;;;5044870;28;20404;-76
2024/01/28 08:01:14;;;;;;;17.45;10.90;;;;;;;;;;5012246;28;20053;-76
2024/01/28 08:03:41;;;;;;;17.23;10.80;;;;;;;;;;5012695;28;20380;-76
2024/01/28 08:06:07;;;;;;;18.33;10.73;;;;;;;;;;5028543;28;20060;-76
2024/01/28 08:08:34;;;;;;;22.67;11.80;;;;;;;;;;5029647;28;20407;-76
2024/01/28 08:11:00;;;;;;;26.02;12.10;;;;;;;;;;5028585;28;20046;-76
2024/01/28 08:13:26;;;;;;;24.00;14.00;;;;;;;;;;5011307;28;20048;-76
2024/01/28 08:15:54;;;;;;;18.48;11.93;;;;;;;;;;5029778;28;20045;-76
2024/01/28 08:18:20;;;;;;;21.33;11.52;;;;;;;;;;5007279;28;20084;-76
2024/01/28 08:20:46;;;;;;;22.30;11.55;;;;;;;;;;5028754;28;20076;-76
2024/01/28 08:23:12;;;;;;;16.08;10.20;;;;;;;;;;5011837;28;20141;-76
2024/01/28 08:25:38;;;;;;;22.15;11.43;;;;;;;;;;5028408;28;20069;-76
2024/01/28 08:28:04;;;;;;;19.85;10.85;;;;;;;;;;5011731;28;20539;-76
2024/01/28 08:30:30;;;;;;;21.48;11.00;;;;;;;;;;4995310;28;20045;-76
2024/01/28 08:32:56;;;;;;;20.27;11.70;;;;;;;;;;5029288;28;20049;-76
2024/01/28 08:35:22;;;;;;;19.95;11.27;;;;;;;;;;5028464;28;20041;-76
2024/01/28 08:37:48;;;;;;;16.13;11.05;;;;;;;;;;5030388;28;20059;-78
2024/01/28 08:40:14;;;;;;;16.35;10.45;;;;;;;;;;5048535;28;20568;-78
2024/01/28 08:42:40;;;;;;;14.73;10.10;;;;;;;;;;5031235;28;20406;-78
2024/01/28 08:45:06;;;;;;;16.92;10.00;;;;;;;;;;5048837;28;20083;-78
2024/01/28 08:47:32;;;;;;;18.67;10.40;;;;;;;;;;5048244;28;20147;-78
2024/01/28 08:49:59;;;;;;;17.27;10.00;;;;;;;;;;5013807;28;20048;-78
2024/01/28 08:52:25;;;;;;;20.02;11.00;;;;;;;;;;5048616;28;20095;-78
2024/01/28 08:54:50;;;;;;;17.55;9.82;;;;;;;;;;5048498;28;20044;-78
2024/01/28 08:57:18;;;;;;;13.07;8.75;;;;;;;;;;5048920;28;20048;-78
2024/01/28 08:59:44;;;;;;;18.92;9.95;;;;;;;;;;5048652;28;20410;-78
2024/01/28 09:02:10;;;;;;;14.50;9.55;;;;;;;;;;5048473;28;20037;-78
2024/01/28 09:04:36;;;;;;;17.58;9.80;;;;;;;;;;5045513;28;20045;-79
2024/01/28 09:07:02;;;;;;;14.45;9.07;;;;;;;;;;5047750;28;20053;-79
2024/01/28 09:09:28;;;;;;;15.98;10.45;;;;;;;;;;5014019;28;20088;-79
2024/01/28 09:11:54;;;;;;;17.00;8.93;;;;;;;;;;5003020;28;20095;-78
2024/01/28 09:14:20;;;;;;;16.20;8.57;;;;;;;;;;5028237;28;20150;-79
2024/01/28 09:16:47;;;;;;;16.30;9.13;;;;;;;;;;5028724;28;20454;-79
2024/01/28 09:19:13;;;;;;;12.38;8.82;;;;;;;;;;5010346;28;20495;-79
2024/01/28 09:21:40;;;;;;;13.95;8.48;;;;;;;;;;5035814;28;20081;-78
2024/01/28 09:24:06;;;;;;;13.23;8.73;;;;;;;;;;5025497;28;20034;-78
2024/01/28 09:26:32;;;;;;;12.50;8.10;;;;;;;;;;5047521;28;20055;-77
2024/01/28 09:29:01;;;;;;;12.57;8.73;;;;;;;;;;5031121;28;20053;-77
2024/01/28 09:31:27;;;;;;;13.93;8.40;;;;;;;;;;5014814;28;20041;-77
2024/01/28 09:33:53;;;;;;;17.30;7.70;;;;;;;;;;5034548;28;20095;-78
2024/01/28 09:36:19;;;;;;;9.52;7.55;;;;;;;;;;5033591;28;20456;-77
2024/01/28 09:38:44;;;;;;;11.85;7.45;;;;;;;;;;5009621;28;20096;-77
2024/01/28 09:41:17;;;;;;;12.25;7.47;;;;;;;;;;5009509;28;20061;-78
2024/01/28 09:43:43;;;;;;;9.68;7.78;;;;;;;;;;5027629;28;20042;-78
2024/01/28 09:46:10;;;;;;;11.88;7.90;;;;;;;;;;5010227;28;20848;-78
2024/01/28 09:48:36;;;;;;;14.23;7.88;;;;;;;;;;5028143;28;20100;-78
2024/01/28 09:51:02;;;;;;;13.93;8.10;;;;;;;;;;4993769;28;20341;-78
2024/01/28 09:53:28;;;;;;;15.35;8.10;;;;;;;;;;5028065;28;20099;-78
2024/01/28 09:55:54;;;;;;;11.40;7.82;;;;;;;;;;5009040;28;20045;-78
2024/01/28 09:58:20;;;;;;;10.98;7.47;;;;;;;;;;5008906;28;20411;-78
2024/01/28 10:00:47;;;;;;;11.80;7.80;;;;;;;;;;5027933;28;20121;-78
2024/01/28 10:03:13;;;;;;;10.25;7.40;;;;;;;;;;5009546;28;20057;-78
2024/01/28 10:05:39;;;;;;;10.73;7.80;;;;;;;;;;5009679;28;20064;-78
2024/01/28 10:08:05;;;;;;;10.15;6.90;;;;;;;;;;5010689;28;20053;-78
2024/01/28 10:10:34;;;;;;;9.77;6.65;;;;;;;;;;5023971;28;20067;-77
2024/01/28 10:13:00;;;;;;;11.85;6.40;;;;;;;;;;5027684;28;20388;-77
2024/01/28 10:15:29;;;;;;;9.52;6.85;;;;;;;;;;5027766;28;20087;-77
2024/01/28 10:17:55;;;;;;;9.32;6.85;;;;;;;;;;5027321;28;20080;-77
2024/01/28 10:20:21;;;;;;;9.82;7.28;;;;;;;;;;5026389;28;20069;-77
2024/01/28 10:22:48;;;;;;;11.18;6.53;;;;;;;;;;5027075;28;20048;-77
2024/01/28 10:25:15;;;;;;;11.93;7.22;;;;;;;;;;5028289;28;20041;-77
2024/01/28 10:27:42;;;;;;;9.07;6.32;;;;;;;;;;5009681;28;20076;-77
2024/01/28 10:30:09;;;;;;;9.15;6.45;;;;;;;;;;5027675;28;20060;-77
2024/01/28 10:32:34;;;;;;;9.00;6.68;;;;;;;;;;5010002;28;20048;-76
2024/01/28 10:35:01;;;;;;;9.85;6.72;;;;;;;;;;5012279;28;20356;-76
2024/01/28 10:37:33;;;;;;;9.32;6.90;;;;;;;;;;5013885;28;20059;-80
2024/01/28 10:40:03;;;;;;;9.30;6.30;;;;;;;;;;5013080;28;20357;-80
2024/01/28 10:42:30;;;;;;;9.60;6.38;;;;;;;;;;5005752;28;20049;-79
2024/01/28 10:44:56;;;;;;;9.93;5.63;;;;;;;;;;5031705;28;20135;-79
2024/01/28 10:47:25;;;;;;;10.80;7.13;;;;;;;;;;5039050;28;20403;-82
2024/01/28 10:49:55;;;;;;;8.88;5.90;;;;;;;;;;5031685;28;20060;-80
2024/01/28 10:52:21;;;;;;;8.20;6.18;;;;;;;;;;5047028;28;20055;-80
2024/01/28 10:54:48;;;;;;;8.73;5.95;;;;;;;;;;5029651;28;20139;-78
2024/01/28 10:57:14;;;;;;;14.02;6.18;;;;;;;;;;5046279;28;20536;-79
2024/01/28 10:59:42;;;;;;;11.82;5.72;;;;;;;;;;5047242;28;20041;-79
2024/01/28 11:02:09;;;;;;;10.60;5.65;;;;;;;;;;5029132;28;20063;-79
2024/01/28 11:04:35;;;;;;;11.18;6.03;;;;;;;;;;5040984;28;20060;-79
2024/01/28 11:07:02;;;;;;;9.43;5.63;;;;;;;;;;5013443;28;20057;-79
2024/01/28 11:09:28;;;;;;;12.65;5.88;;;;;;;;;;5046525;28;20535;-79
2024/01/28 11:11:55;;;;;;;7.47;5.55;;;;;;;;;;5011744;28;20076;-79
2024/01/28 11:14:21;;;;;;;10.93;5.13;;;;;;;;;;5032480;28;20112;-79
2024/01/28 11:16:47;;;;;;;8.30;5.43;;;;;;;;;;5028354;28;21176;-80
2024/01/28 11:19:15;;;;;;;10.85;5.53;;;;;;;;;;5028805;28;20053;-79
2024/01/28 11:21:41;;;;;;;9.35;5.82;;;;;;;;;;5028367;28;20550;-79
2024/01/28 11:24:11;;;;;;;9.57;5.50;;;;;;;;;;5013575;28;20399;-79
2024/01/28 11:26:40;;;;;;;8.65;5.05;;;;;;;;;;5027444;28;20073;-79
2024/01/28 11:29:07;;;;;;;10.85;5.10;;;;;;;;;;5030756;28;20417;-79
2024/01/28 11:31:34;;;;;;;9.05;4.95;;;;;;;;;;5029189;28;20072;-80
2024/01/28 11:34:12;;;;;;;7.95;4.60;;;;;;;;;;5030166;28;20136;-80
2024/01/28 11:36:38;;;;;;;9.38;4.80;;;;;;;;;;5042133;28;20071;-82
2024/01/28 11:39:05;;;;;;;9.93;4.90;;;;;;;;;;4998606;28;20119;-80
2024/01/28 11:41:36;;;;;;;5.88;4.70;;;;;;;;;;5029002;28;20107;-79
2024/01/28 11:44:03;;;;;;;7.70;4.35;;;;;;;;;;5027288;28;20148;-79
2024/01/28 11:46:30;;;;;;;5.97;4.13;;;;;;;;;;5026738;28;20107;-80
2024/01/28 11:48:56;;;;;;;6.70;4.32;;;;;;;;;;5012285;28;20184;-80
2024/01/28 11:51:22;;;;;;;10.05;4.20;;;;;;;;;;5027638;28;20080;-81
2024/01/28 11:53:48;;;;;;;8.93;6.35;;;;;;;;;;5040345;28;20561;-81
2024/01/28 11:56:16;;;;;;;7.25;4.75;;;;;;;;;;5006891;28;20083;-81
2024/01/28 11:58:42;;;;;;;7.88;4.20;;;;;;;;;;5007285;28;21565;-80
2024/01/28 12:01:08;;;;;;;8.90;5.15;;;;;;;;;;4992793;28;20081;-80
2024/01/28 12:03:34;;;;;;;6.85;4.50;;;;;;;;;;5027366;28;20072;-80
2024/01/28 12:06:00;;;;;;;6.15;3.97;;;;;;;;;;5010741;28;20487;-81
2024/01/28 12:08:26;;;;;;;5.57;3.80;;;;;;;;;;5029559;28;20510;-81
2024/01/28 12:11:03;;;;;;;5.95;3.63;;;;;;;;;;5027078;28;20143;-80
2024/01/28 12:13:29;;;;;;;5.90;3.75;;;;;;;;;;5028771;28;20164;-80
2024/01/28 12:16:02;;;;;;;5.20;3.45;;;;;;;;;;5010802;28;20085;-81
2024/01/28 12:18:28;;;;;;;;;;;;;;;;;;5011805;28;20057;-81
2024/01/28 12:20:54;;;;;;;4.85;3.35;;;;;;;;;;5029110;28;20444;-82
2024/01/28 12:23:20;;;;;;;5.78;3.78;;;;;;;;;;4991875;28;20063;-81
2024/01/28 12:25:46;;;;;;;5.18;3.17;;;;;;;;;;5009907;28;20053;-81
2024/01/28 12:28:12;;;;;;;4.50;3.55;;;;;;;;;;5026644;28;20123;-83
2024/01/28 12:30:38;;;;;;;7.40;3.97;;;;;;;;;;5007109;28;20566;-80
2024/01/28 12:33:05;;;;;;;6.65;4.00;;;;;;;;;;4989517;28;20806;-82
2024/01/28 12:35:31;;;;;;;8.88;3.45;;;;;;;;;;5028396;28;20153;-81
2024/01/28 12:37:57;;;;;;;5.93;3.50;;;;;;;;;;5028367;28;20136;-82
2024/01/28 12:40:23;;;;;;;5.25;3.38;;;;;;;;;;5027933;28;20061;-82
2024/01/28 12:42:49;;;;;;;4.65;3.30;;;;;;;;;;5027499;28;20068;-82
2024/01/28 12:45:15;;;;;;;6.90;3.45;;;;;;;;;;5010449;28;20049;-81
2024/01/28 12:47:42;;;;;;;5.85;3.10;;;;;;;;;;5010569;28;20357;-82
2024/01/28 12:50:09;;;;;;;4.97;3.53;;;;;;;;;;5026986;28;20144;-81
2024/01/28 12:52:35;;;;;;;5.10;3.20;;;;;;;;;;5027835;28;20057;-82
2024/01/28 12:55:02;;;;;;;5.20;3.22;;;;;;;;;;5009404;28;20058;-83
2024/01/28 12:57:28;;;;;;;8.23;3.50;;;;;;;;;;5009291;28;20103;-81
2024/01/28 12:59:54;;;;;;;4.63;3.10;;;;;;;;;;5010834;28;20045;-82
2024/01/28 13:02:22;;;;;;;3.85;3.10;;;;;;;;;;5027744;28;21295;-82
2024/01/28 13:04:48;;;;;;;5.60;2.92;;;;;;;;;;5026622;28;20104;-82
2024/01/28 13:07:14;;;;;;;3.85;2.90;;;;;;;;;;5008946;28;20054;-83
2024/01/28 13:09:40;;;;;;;4.72;3.30;;;;;;;;;;5026549;28;20056;-83
2024/01/28 13:12:06;;;;;;;6.07;3.13;;;;;;;;;;5008722;28;20064;-83
2024/01/28 13:14:32;;;;;;;6.05;3.10;;;;;;;;;;5010672;28;20146;-82
2024/01/28 13:16:58;;;;;;;6.00;3.33;;;;;;;;;;5026012;28;20468;-82
2024/01/28 13:19:25;;;;;;;4.97;3.35;;;;;;;;;;5005743;28;20045;-83
2024/01/28 13:21:51;;;;;;;6.15;3.22;;;;;;;;;;5016239;28;20133;-84
2024/01/28 13:24:17;;;;;;;6.20;2.88;;;;;;;;;;5017613;28;20144;-83
2024/01/28 13:26:43;;;;;;;6.47;3.17;;;;;;;;;;5027317;28;20148;-83
2024/01/28 13:29:09;;;;;;;5.22;2.92;;;;;;;;;;5006952;28;20045;-84
2024/01/28 13:31:35;;;;;;;5.95;3.28;;;;;;;;;;5026122;28;20079;-84
2024/01/28 13:34:01;;;;;;;6.00;3.17;;;;;;;;;;5000368;28;20443;-84
2024/01/28 13:36:27;;;;;;;4.82;3.53;;;;;;;;;;5025108;28;20117;-83
2024/01/28 13:38:53;;;;;;;5.75;3.08;;;;;;;;;;5026507;28;20407;-82
2024/01/28 13:41:19;;;;;;;6.05;3.15;;;;;;;;;;5007251;28;20052;-83
2024/01/28 13:43:45;;;;;;;4.22;3.00;;;;;;;;;;5022176;28;20136;-83
2024/01/28 13:46:11;;;;;;;6.80;3.50;;;;;;;;;;5025657;28;20045;-83
2024/01/28 13:48:37;;;;;;;6.75;3.22;;;;;;;;;;5008471;28;20053;-82
2024/01/28 13:51:03;;;;;;;5.68;2.92;;;;;;;;;;4993041;28;20725;-83
2024/01/28 13:53:30;;;;;;;4.60;3.15;;;;;;;;;;5005631;28;20052;-82
2024/01/28 13:55:56;;;;;;;5.28;3.03;;;;;;;;;;4990096;28;20057;-83
2024/01/28 13:58:22;;;;;;;8.73;3.30;;;;;;;;;;5008649;28;20064;-83
2024/01/28 14:00:48;;;;;;;5.07;3.13;;;;;;;;;;4990409;28;20057;-83
2024/01/28 14:03:14;;;;;;;4.55;2.97;;;;;;;;;;5009085;28;20054;-83
2024/01/28 14:05:41;;;;;;;5.50;3.25;;;;;;;;;;5022635;28;20187;-83
2024/01/28 14:08:08;;;;;;;4.95;3.05;;;;;;;;;;5025777;28;20106;-83
2024/01/28 14:10:34;;;;;;;7.47;3.20;;;;;;;;;;5008728;28;20461;-83
2024/01/28 14:13:00;;;;;;;28.83;5.68;;;;;;;;;;5007518;28;20049;-84
2024/01/28 14:15:26;;;;;;;6.05;3.25;;;;;;;;;;5008632;28;20056;-83
2024/01/28 14:17:52;;;;;;;4.43;3.05;;;;;;;;;;5026159;28;20053;-83
2024/01/28 14:20:18;;;;;;;7.22;3.67;;;;;;;;;;5005830;28;20053;-82